Hauptseite
METAR-TAF:

METAR-TAF

Flughäfen :

Militärflugplatz Piacenza

Piacenza, Italien

Breite: 44-55N, Länge: 009-44E, Höhe: 134 m

Beobachtung

Neuester Wetterbericht von vor 12 Stunden und 4 Minuten, um 17:55 UTC
Wind 3 kt aus Süd/Südwest
Temperatur 18°C
Luftfeuchtigkeit 100%
Luftdruck 1012 hPa
Sichtweite 10 km oder mehr
Durchbrochene Bewölkung in der Höhe von 3000 ft

METAR: LIMS 231755Z 21003KT 9999 BKN030 18/18 Q1012 RMK BKN VIS MIN 9999 WIND THR30 19003KT BLU

Zeit: 07:59 (05:59 UTC)


TAF: fehlend

Wetterbeobachtungen und Prognosen von mehr als 4000 Flughäfen (METAR und TAF Bericht).

Die verfügbaren Stationen werden durch gelbe und rote Markierungen auf der Karte dargestellt.

Führen Sie die Maus auf sie, um den Namen der Station zu sehen.

Darauf klicken, um die Beobachtung von Wetterbeobachtungen und Prognosen zu sehen.

Um die Karte zu ändern : klicken Sie auf den grünen Tasten mit einem schwarzen Kreuz Zum Vergrößern, auf den grünen Button mit einem Gedankenstrich zu verkleinern, oder auf die grünen Pfeile für benachbarte Karten.


METAR-TAF: